Time;durP1;ratioP1;P1;durP2;ratioP2;P2;SDS_P1;SDS_P2;PMS_P1;PMS_P2;Temp;Humidity;BMP_temperature;BMP_pressure;BME280_temperature;BME280_humidity;BME280_pressure;Samples;Min_cycle;Max_cycle;Signal;HPM_P1;HPM_P2
2022/12/25 00:01:44;;;;;;;7.25;2.78;;;;;;;;;;5016784;28;20029;-80
2022/12/25 00:04:09;;;;;;;13.05;3.88;;;;;;;;;;5027369;28;20033;-80
2022/12/25 00:06:35;;;;;;;5.47;2.70;;;;;;;;;;5038073;28;20557;-80
2022/12/25 00:09:00;;;;;;;4.85;2.70;;;;;;;;;;5020590;28;20091;-80
2022/12/25 00:11:25;;;;;;;8.48;2.83;;;;;;;;;;5038164;28;20024;-80
2022/12/25 00:13:51;;;;;;;7.32;3.05;;;;;;;;;;5044265;28;20510;-81
2022/12/25 00:16:20;;;;;;;6.85;2.60;;;;;;;;;;5039512;28;20566;-80
2022/12/25 00:18:46;;;;;;;7.40;2.45;;;;;;;;;;5042327;28;20171;-80
2022/12/25 00:21:13;;;;;;;6.75;2.72;;;;;;;;;;5026519;28;20116;-80
2022/12/25 00:23:38;;;;;;;8.32;2.22;;;;;;;;;;5044403;28;20128;-80
2022/12/25 00:26:06;;;;;;;7.45;2.40;;;;;;;;;;5013694;28;20386;-80
2022/12/25 00:28:31;;;;;;;5.35;2.42;;;;;;;;;;5042922;28;20036;-80
2022/12/25 00:30:56;;;;;;;6.53;2.25;;;;;;;;;;5044983;28;20033;-80
2022/12/25 00:33:23;;;;;;;4.97;2.00;;;;;;;;;;5017923;28;20098;-80
2022/12/25 00:35:59;;;;;;;5.60;1.98;;;;;;;;;;5023868;28;20021;-80
2022/12/25 00:38:25;;;;;;;6.05;2.17;;;;;;;;;;5040974;28;20064;-80
2022/12/25 00:40:51;;;;;;;4.40;2.00;;;;;;;;;;5026114;28;20407;-80
2022/12/25 00:43:17;;;;;;;7.53;1.70;;;;;;;;;;5041490;28;20063;-80
2022/12/25 00:45:42;;;;;;;5.82;1.65;;;;;;;;;;5035479;28;20037;-80
2022/12/25 00:48:07;;;;;;;8.57;1.75;;;;;;;;;;5023837;28;20096;-80
2022/12/25 00:50:33;;;;;;;7.40;1.60;;;;;;;;;;5043149;28;20112;-80
2022/12/25 00:52:58;;;;;;;10.05;1.58;;;;;;;;;;5016979;28;20407;-80
2022/12/25 00:55:24;;;;;;;3.28;1.75;;;;;;;;;;5037480;28;20048;-80
2022/12/25 00:57:49;;;;;;;2.50;1.35;;;;;;;;;;5039398;28;20099;-80
2022/12/25 01:00:14;;;;;;;5.20;1.85;;;;;;;;;;5023342;28;20526;-80
2022/12/25 01:02:40;;;;;;;2.42;1.17;;;;;;;;;;5042716;28;20522;-81
2022/12/25 01:05:06;;;;;;;5.47;1.70;;;;;;;;;;5026324;28;20112;-80
2022/12/25 01:07:31;;;;;;;2.42;1.30;;;;;;;;;;5027934;28;20047;-80
2022/12/25 01:12:41;;;;;;;;;;;;;;;;;;5030553;28;20031;-80
2022/12/25 01:15:08;;;;;;;5.80;1.35;;;;;;;;;;5035135;28;19912;-80
2022/12/25 01:17:34;;;;;;;3.28;1.17;;;;;;;;;;5031704;28;20025;-80
2022/12/25 01:20:00;;;;;;;6.28;1.42;;;;;;;;;;5038886;28;20517;-80
2022/12/25 01:22:26;;;;;;;3.88;1.10;;;;;;;;;;5043816;28;20163;-80
2022/12/25 01:24:51;;;;;;;3.70;1.40;;;;;;;;;;5046510;28;20033;-80
2022/12/25 01:27:17;;;;;;;3.55;1.67;;;;;;;;;;5027591;28;20079;-80
2022/12/25 01:29:42;;;;;;;4.25;1.30;;;;;;;;;;5021942;28;20036;-80
2022/12/25 01:32:08;;;;;;;3.65;1.42;;;;;;;;;;5037250;28;20044;-80
2022/12/25 01:34:33;;;;;;;3.70;1.50;;;;;;;;;;5036201;28;20517;-80
2022/12/25 01:36:58;;;;;;;3.20;1.23;;;;;;;;;;5045537;28;20592;-80
2022/12/25 01:39:24;;;;;;;9.50;1.35;;;;;;;;;;5041157;28;20676;-81
2022/12/25 01:41:49;;;;;;;3.17;1.40;;;;;;;;;;5025573;28;20064;-80
2022/12/25 01:44:14;;;;;;;4.65;1.55;;;;;;;;;;5026890;28;20076;-80
2022/12/25 01:46:41;;;;;;;2.15;1.20;;;;;;;;;;5028186;28;20033;-80
2022/12/25 01:49:16;;;;;;;4.13;1.80;;;;;;;;;;5042529;28;20037;-80
2022/12/25 01:51:55;;;;;;;4.28;1.63;;;;;;;;;;5042589;28;20191;-80
2022/12/25 01:54:27;;;;;;;5.22;1.27;;;;;;;;;;5042378;28;20032;-80
2022/12/25 01:56:54;;;;;;;3.88;1.50;;;;;;;;;;5029309;28;20031;-80
2022/12/25 01:59:23;;;;;;;3.90;1.60;;;;;;;;;;5023168;28;20041;-80
2022/12/25 02:01:48;;;;;;;4.07;1.50;;;;;;;;;;5039480;28;20139;-79
2022/12/25 02:04:37;;;;;;;2.55;1.67;;;;;;;;;;5025637;28;20120;-80
2022/12/25 02:07:05;;;;;;;2.83;1.67;;;;;;;;;;5023850;28;20052;-80
2022/12/25 02:09:31;;;;;;;5.03;1.58;;;;;;;;;;5038960;28;20568;-80
2022/12/25 02:11:56;;;;;;;4.25;1.65;;;;;;;;;;5021866;28;20028;-80
2022/12/25 02:14:23;;;;;;;5.43;1.45;;;;;;;;;;5047071;28;20372;-80
2022/12/25 02:16:56;;;;;;;5.00;1.60;;;;;;;;;;5026974;28;20049;-80
2022/12/25 02:19:35;;;;;;;;;;;;;;;;;;5026073;28;20410;-80
2022/12/25 02:22:25;;;;;;;2.40;1.23;;;;;;;;;;5020781;28;19960;-81
2022/12/25 02:25:12;;;;;;;1.85;1.13;;;;;;;;;;5044372;28;20395;-80
2022/12/25 02:28:03;;;;;;;3.13;1.33;;;;;;;;;;5043062;28;20037;-80
2022/12/25 02:30:37;;;;;;;5.10;1.52;;;;;;;;;;5027354;28;20514;-80
2022/12/25 02:36:17;;;;;;;4.45;1.70;;;;;;;;;;5046883;28;20047;-80
2022/12/25 02:41:34;;;;;;;3.42;1.60;;;;;;;;;;5031105;28;20051;-80
2022/12/25 03:06:41;;;;;;;8.10;1.60;;;;;;;;;;5032284;28;20122;-80
2022/12/25 03:12:17;;;;;;;5.15;1.85;;;;;;;;;;5039998;28;20048;-80
2022/12/25 03:17:27;;;;;;;3.83;1.85;;;;;;;;;;5045286;28;20039;-80
2022/12/25 03:28:05;;;;;;;3.83;1.52;;;;;;;;;;5043998;28;20526;-78
2022/12/25 03:37:23;;;;;;;5.05;1.65;;;;;;;;;;5011155;28;20587;-80
2022/12/25 04:37:53;;;;;;;;;;;;;;;;;;5045919;28;20048;-80
2022/12/25 04:40:18;;;;;;;3.55;1.58;;;;;;;;;;5042059;28;19913;-80
2022/12/25 04:42:43;;;;;;;5.43;1.98;;;;;;;;;;5026787;28;20048;-80
2022/12/25 04:45:10;;;;;;;3.20;1.65;;;;;;;;;;5024479;28;20064;-80
2022/12/25 04:47:35;;;;;;;3.67;1.98;;;;;;;;;;5044376;28;20544;-80
2022/12/25 04:50:00;;;;;;;3.13;1.60;;;;;;;;;;5039425;28;20029;-80
2022/12/25 04:52:26;;;;;;;2.88;1.75;;;;;;;;;;5027379;28;20032;-80
2022/12/25 04:54:51;;;;;;;7.13;2.22;;;;;;;;;;5037641;28;20093;-80
2022/12/25 04:57:16;;;;;;;5.05;2.00;;;;;;;;;;5049384;28;20443;-80
2022/12/25 04:59:42;;;;;;;6.53;2.20;;;;;;;;;;5048735;28;20032;-80
2022/12/25 05:02:07;;;;;;;2.78;1.65;;;;;;;;;;5030593;28;20045;-80
2022/12/25 05:04:32;;;;;;;3.97;1.80;;;;;;;;;;5045289;28;20047;-80
2022/12/25 05:06:58;;;;;;;3.97;1.88;;;;;;;;;;5038861;28;20090;-80
2022/12/25 05:09:24;;;;;;;8.65;2.33;;;;;;;;;;5043936;28;20040;-80
2022/12/25 05:11:50;;;;;;;6.53;2.60;;;;;;;;;;5031203;28;20028;-80
2022/12/25 05:14:15;;;;;;;5.47;2.50;;;;;;;;;;5029162;28;20033;-80
2022/12/25 05:16:40;;;;;;;4.50;2.33;;;;;;;;;;5027695;28;20036;-80
2022/12/25 05:19:06;;;;;;;4.85;2.70;;;;;;;;;;5023802;28;20045;-81
2022/12/25 05:21:31;;;;;;;5.07;2.35;;;;;;;;;;5041118;28;20422;-80
2022/12/25 05:23:56;;;;;;;6.15;2.80;;;;;;;;;;5046831;28;20028;-80
2022/12/25 05:26:24;;;;;;;8.05;3.22;;;;;;;;;;5028379;28;20111;-80
2022/12/25 05:28:50;;;;;;;4.63;2.67;;;;;;;;;;5047360;28;20382;-80
2022/12/25 05:31:16;;;;;;;4.35;2.30;;;;;;;;;;5030657;28;20037;-80
2022/12/25 05:33:41;;;;;;;5.97;2.25;;;;;;;;;;5027433;28;20033;-80
2022/12/25 05:36:09;;;;;;;3.80;2.30;;;;;;;;;;5040134;28;20037;-79
2022/12/25 05:38:35;;;;;;;6.53;2.15;;;;;;;;;;5027539;28;20021;-80
2022/12/25 05:41:00;;;;;;;4.25;2.60;;;;;;;;;;5018481;28;20048;-80
2022/12/25 05:43:27;;;;;;;6.63;2.67;;;;;;;;;;5039761;28;20032;-80
2022/12/25 05:45:53;;;;;;;6.38;2.47;;;;;;;;;;5043194;28;20082;-80
2022/12/25 05:48:18;;;;;;;4.32;2.85;;;;;;;;;;5039418;28;20528;-80
2022/12/25 05:50:43;;;;;;;11.02;2.80;;;;;;;;;;5047832;28;20071;-80
2022/12/25 05:53:11;;;;;;;4.47;2.53;;;;;;;;;;5029528;28;20044;-80
2022/12/25 05:55:38;;;;;;;5.30;2.58;;;;;;;;;;5022627;28;20127;-80
2022/12/25 05:58:05;;;;;;;8.13;2.45;;;;;;;;;;5025968;28;20037;-80
2022/12/25 06:00:31;;;;;;;4.80;2.35;;;;;;;;;;5040354;28;20045;-80
2022/12/25 06:02:57;;;;;;;8.57;2.92;;;;;;;;;;5030003;28;20047;-80
2022/12/25 06:05:22;;;;;;;8.00;2.75;;;;;;;;;;5037634;28;20021;-80
2022/12/25 06:07:47;;;;;;;6.03;2.90;;;;;;;;;;5040537;28;20049;-80
2022/12/25 06:10:13;;;;;;;8.02;2.60;;;;;;;;;;5020657;28;20419;-80
2022/12/25 06:12:38;;;;;;;6.13;2.67;;;;;;;;;;5023311;28;20075;-80
2022/12/25 06:15:04;;;;;;;5.05;2.50;;;;;;;;;;5041277;28;20468;-80
2022/12/25 06:17:30;;;;;;;4.38;2.08;;;;;;;;;;5022599;28;20021;-80
2022/12/25 06:19:55;;;;;;;6.47;3.00;;;;;;;;;;5021257;28;20053;-80
2022/12/25 06:22:21;;;;;;;5.88;2.72;;;;;;;;;;5036970;28;20037;-80
2022/12/25 06:24:46;;;;;;;6.68;2.80;;;;;;;;;;5044890;28;20037;-80
2022/12/25 06:27:11;;;;;;;5.43;2.42;;;;;;;;;;5042792;28;20035;-80
2022/12/25 06:29:37;;;;;;;7.00;2.65;;;;;;;;;;5026054;28;20091;-80
2022/12/25 06:32:02;;;;;;;3.97;2.05;;;;;;;;;;5018628;28;20036;-80
2022/12/25 06:34:28;;;;;;;4.68;2.20;;;;;;;;;;5041341;28;20053;-80
2022/12/25 06:36:53;;;;;;;4.47;2.10;;;;;;;;;;5027016;28;20426;-80
2022/12/25 06:39:20;;;;;;;4.20;2.33;;;;;;;;;;5028951;28;20119;-80
2022/12/25 06:41:46;;;;;;;4.82;2.20;;;;;;;;;;5028669;28;20037;-80
2022/12/25 06:44:12;;;;;;;5.53;2.28;;;;;;;;;;5024734;28;20060;-80
2022/12/25 06:46:37;;;;;;;4.75;2.10;;;;;;;;;;5040950;28;20045;-80
2022/12/25 06:49:02;;;;;;;4.50;2.13;;;;;;;;;;5038323;28;20512;-80
2022/12/25 06:51:29;;;;;;;3.45;1.90;;;;;;;;;;5045603;28;20039;-80
2022/12/25 06:53:56;;;;;;;5.45;2.30;;;;;;;;;;5043292;28;20029;-80
2022/12/25 06:56:25;;;;;;;5.43;2.53;;;;;;;;;;5019448;28;20030;-80
2022/12/25 06:58:54;;;;;;;10.98;2.58;;;;;;;;;;5024227;28;20627;-80
2022/12/25 07:01:26;;;;;;;3.88;1.77;;;;;;;;;;5042927;28;20560;-80
2022/12/25 07:03:55;;;;;;;5.18;2.15;;;;;;;;;;5027134;28;20048;-80
2022/12/25 07:06:20;;;;;;;5.93;2.67;;;;;;;;;;5035370;28;20498;-80
2022/12/25 07:08:46;;;;;;;4.88;1.92;;;;;;;;;;5026707;28;20072;-80
2022/12/25 07:11:11;;;;;;;4.32;2.00;;;;;;;;;;5023754;28;20049;-80
2022/12/25 07:13:37;;;;;;;4.93;2.20;;;;;;;;;;5024278;28;20049;-79
2022/12/25 07:16:03;;;;;;;3.28;1.98;;;;;;;;;;5024052;28;20125;-80
2022/12/25 07:18:30;;;;;;;3.15;2.22;;;;;;;;;;5044081;28;20048;-80
2022/12/25 07:20:55;;;;;;;5.35;2.30;;;;;;;;;;5045898;28;20047;-80
2022/12/25 07:23:22;;;;;;;10.07;4.50;;;;;;;;;;5012945;28;20033;-80
2022/12/25 07:25:55;;;;;;;20.55;7.78;;;;;;;;;;5041226;28;20496;-80
2022/12/25 07:28:20;;;;;;;14.48;6.13;;;;;;;;;;5038582;28;20119;-80
2022/12/25 07:30:46;;;;;;;16.75;5.88;;;;;;;;;;5043859;28;20124;-80
2022/12/25 07:33:11;;;;;;;25.45;10.70;;;;;;;;;;5020053;28;20044;-80
2022/12/25 07:35:37;;;;;;;31.38;13.80;;;;;;;;;;5035923;28;20132;-80
2022/12/25 07:38:03;;;;;;;15.38;7.22;;;;;;;;;;5028374;28;20045;-80
2022/12/25 07:40:28;;;;;;;11.43;5.35;;;;;;;;;;5028159;28;20040;-80
2022/12/25 07:42:53;;;;;;;6.22;2.63;;;;;;;;;;5047260;28;20469;-80
2022/12/25 07:45:18;;;;;;;8.88;2.90;;;;;;;;;;5039420;28;20846;-80
2022/12/25 07:47:44;;;;;;;5.72;2.30;;;;;;;;;;5045164;28;20024;-79
2022/12/25 07:50:09;;;;;;;4.38;2.15;;;;;;;;;;5025178;28;20025;-80
2022/12/25 07:52:35;;;;;;;7.80;2.83;;;;;;;;;;5021378;28;20033;-80
2022/12/25 07:55:00;;;;;;;10.30;3.30;;;;;;;;;;5016735;28;20041;-79
2022/12/25 07:57:25;;;;;;;9.20;4.20;;;;;;;;;;5039785;28;20029;-79
2022/12/25 07:59:51;;;;;;;11.43;3.83;;;;;;;;;;5036940;28;20059;-80
2022/12/25 08:02:16;;;;;;;7.72;3.85;;;;;;;;;;5023753;28;20029;-79
2022/12/25 08:04:41;;;;;;;6.22;3.17;;;;;;;;;;5037325;28;20430;-80
2022/12/25 08:07:06;;;;;;;9.13;3.00;;;;;;;;;;5022892;28;20025;-80
2022/12/25 08:09:34;;;;;;;6.85;3.40;;;;;;;;;;5035958;28;20094;-80
2022/12/25 08:11:59;;;;;;;8.48;3.22;;;;;;;;;;5009087;28;20032;-80
2022/12/25 08:14:24;;;;;;;10.75;5.07;;;;;;;;;;5027666;28;20025;-80
2022/12/25 08:16:50;;;;;;;9.00;4.28;;;;;;;;;;5045368;28;20037;-80
2022/12/25 08:19:15;;;;;;;6.13;3.95;;;;;;;;;;5045130;28;20203;-80
2022/12/25 08:21:40;;;;;;;8.07;4.50;;;;;;;;;;5026138;28;20383;-80
2022/12/25 08:24:06;;;;;;;6.95;3.95;;;;;;;;;;5032835;28;20035;-80
2022/12/25 08:26:31;;;;;;;9.70;4.50;;;;;;;;;;5027418;28;20490;-80
2022/12/25 08:28:57;;;;;;;12.10;5.47;;;;;;;;;;5044443;28;20074;-80
2022/12/25 08:31:26;;;;;;;51.75;18.70;;;;;;;;;;5045715;28;20098;-80
2022/12/25 08:33:53;;;;;;;57.13;21.08;;;;;;;;;;5017362;28;20036;-79
2022/12/25 08:36:19;;;;;;;38.53;16.45;;;;;;;;;;5040430;28;20043;-79
2022/12/25 08:38:44;;;;;;;27.95;11.45;;;;;;;;;;5044083;28;20168;-79
2022/12/25 08:41:11;;;;;;;14.98;6.75;;;;;;;;;;5029581;28;20045;-79
2022/12/25 08:43:36;;;;;;;12.88;5.47;;;;;;;;;;5023571;28;20090;-79
2022/12/25 08:46:02;;;;;;;13.20;5.95;;;;;;;;;;5030010;28;20033;-79
2022/12/25 08:48:28;;;;;;;8.68;4.75;;;;;;;;;;5040260;28;20145;-80
2022/12/25 08:50:54;;;;;;;11.30;5.20;;;;;;;;;;5041404;28;20485;-79
2022/12/25 08:53:20;;;;;;;8.30;4.55;;;;;;;;;;5041327;28;20496;-80
2022/12/25 08:55:45;;;;;;;8.63;3.45;;;;;;;;;;5019739;28;20128;-79
2022/12/25 08:58:11;;;;;;;5.80;3.25;;;;;;;;;;5044346;28;20033;-79
2022/12/25 09:00:36;;;;;;;4.82;2.78;;;;;;;;;;5044783;28;20063;-80
2022/12/25 09:03:02;;;;;;;4.72;2.80;;;;;;;;;;5043308;28;20398;-79
2022/12/25 09:05:28;;;;;;;6.20;3.15;;;;;;;;;;5048416;28;20020;-79
2022/12/25 09:07:54;;;;;;;6.95;3.88;;;;;;;;;;5017740;28;20033;-79
2022/12/25 09:10:20;;;;;;;9.40;5.00;;;;;;;;;;5040536;28;20712;-79
2022/12/25 09:12:45;;;;;;;11.07;5.30;;;;;;;;;;5047035;28;20568;-79
2022/12/25 09:15:10;;;;;;;10.48;5.03;;;;;;;;;;5027674;28;20017;-79
2022/12/25 09:17:36;;;;;;;9.82;5.45;;;;;;;;;;5022756;28;20464;-80
2022/12/25 09:20:01;;;;;;;8.10;4.93;;;;;;;;;;5044147;28;20052;-80
2022/12/25 09:22:27;;;;;;;8.05;4.55;;;;;;;;;;5027275;28;20033;-80
2022/12/25 09:24:52;;;;;;;10.55;5.53;;;;;;;;;;5028017;28;20040;-80
2022/12/25 09:27:17;;;;;;;7.70;4.95;;;;;;;;;;5027801;28;20044;-80
2022/12/25 09:29:43;;;;;;;8.75;4.55;;;;;;;;;;5026004;28;20028;-80
2022/12/25 09:32:08;;;;;;;9.63;5.30;;;;;;;;;;5047473;28;20045;-80
2022/12/25 09:34:34;;;;;;;16.83;7.75;;;;;;;;;;5046363;28;20028;-80
2022/12/25 09:37:00;;;;;;;17.42;8.82;;;;;;;;;;5044947;28;20036;-80
2022/12/25 09:39:25;;;;;;;10.70;5.80;;;;;;;;;;5046485;28;20735;-79
2022/12/25 09:41:54;;;;;;;7.90;3.90;;;;;;;;;;5027213;28;20021;-79
2022/12/25 09:44:42;;;;;;;8.65;3.85;;;;;;;;;;5044615;28;20545;-79
2022/12/25 09:47:12;;;;;;;11.18;4.55;;;;;;;;;;5020323;28;20060;-79
2022/12/25 09:49:43;;;;;;;9.23;4.80;;;;;;;;;;5037702;28;20978;-79
2022/12/25 09:52:17;;;;;;;9.07;4.80;;;;;;;;;;5024550;28;20037;-80
2022/12/25 09:54:48;;;;;;;7.55;4.18;;;;;;;;;;5011318;28;20170;-78
2022/12/25 09:57:14;;;;;;;8.13;4.10;;;;;;;;;;5039362;28;20048;-79
2022/12/25 09:59:43;;;;;;;8.98;4.50;;;;;;;;;;5045655;28;20014;-78
2022/12/25 10:02:38;;;;;;;12.88;5.97;;;;;;;;;;5022183;28;20811;-77
2022/12/25 10:05:07;;;;;;;12.23;6.32;;;;;;;;;;5037588;28;20124;-78
2022/12/25 10:07:38;;;;;;;9.02;5.03;;;;;;;;;;5028284;28;20437;-78
2022/12/25 10:10:16;;;;;;;16.45;7.18;;;;;;;;;;5045839;28;20095;-78
2022/12/25 10:13:15;;;;;;;37.13;15.13;;;;;;;;;;5036199;28;20048;-78
2022/12/25 10:16:02;;;;;;;15.55;7.63;;;;;;;;;;5015083;28;20669;-78
2022/12/25 10:18:34;;;;;;;16.80;7.45;;;;;;;;;;5019746;28;20788;-78
2022/12/25 10:21:02;;;;;;;14.90;7.43;;;;;;;;;;5046076;28;20116;-78
2022/12/25 10:23:31;;;;;;;9.98;5.18;;;;;;;;;;5029418;28;20433;-78
2022/12/25 10:25:56;;;;;;;14.25;6.85;;;;;;;;;;5046343;28;20032;-77
2022/12/25 10:28:40;;;;;;;16.65;6.80;;;;;;;;;;5044557;28;20129;-78
2022/12/25 10:31:16;;;;;;;16.20;6.70;;;;;;;;;;5028913;28;20037;-78
2022/12/25 10:33:42;;;;;;;7.28;3.85;;;;;;;;;;5036099;28;20464;-78
2022/12/25 10:36:08;;;;;;;7.80;3.25;;;;;;;;;;4976905;28;20025;-78
2022/12/25 10:38:35;;;;;;;5.82;3.10;;;;;;;;;;4987451;28;20402;-77
2022/12/25 10:41:17;;;;;;;8.05;3.58;;;;;;;;;;4988424;28;20048;-78
2022/12/25 10:43:52;;;;;;;6.35;3.40;;;;;;;;;;4979762;28;20071;-78
2022/12/25 10:46:19;;;;;;;7.45;3.08;;;;;;;;;;4971491;28;20556;-77
2022/12/25 10:48:52;;;;;;;9.32;3.85;;;;;;;;;;4957593;28;20440;-78
2022/12/25 10:51:32;;;;;;;7.00;3.45;;;;;;;;;;4952264;28;20037;-78
2022/12/25 10:53:58;;;;;;;8.38;3.60;;;;;;;;;;4972697;28;20037;-78
2022/12/25 10:56:23;;;;;;;6.13;3.08;;;;;;;;;;4970560;28;20025;-78
2022/12/25 10:58:49;;;;;;;8.02;3.92;;;;;;;;;;4971525;28;20075;-78
2022/12/25 11:01:14;;;;;;;8.45;3.17;;;;;;;;;;4970913;28;20037;-78
2022/12/25 11:03:44;;;;;;;8.52;3.33;;;;;;;;;;4988734;28;20044;-78
2022/12/25 11:06:24;;;;;;;8.52;3.53;;;;;;;;;;4971872;28;20124;-78
2022/12/25 11:08:53;;;;;;;9.77;3.47;;;;;;;;;;4990722;28;20044;-79
2022/12/25 11:11:20;;;;;;;7.22;3.65;;;;;;;;;;4969855;28;20033;-78
2022/12/25 11:13:56;;;;;;;10.27;4.60;;;;;;;;;;4971091;28;20048;-78
2022/12/25 11:16:28;;;;;;;11.43;3.85;;;;;;;;;;4971732;28;20618;-79
2022/12/25 11:18:55;;;;;;;7.63;4.22;;;;;;;;;;4975236;28;20048;-79
2022/12/25 11:21:29;;;;;;;8.48;3.97;;;;;;;;;;4971713;28;20044;-78
2022/12/25 11:24:00;;;;;;;7.47;3.85;;;;;;;;;;4973436;28;20032;-78
2022/12/25 11:26:29;;;;;;;6.72;3.47;;;;;;;;;;4971625;28;20091;-78
2022/12/25 11:28:55;;;;;;;5.95;3.40;;;;;;;;;;4972398;28;20033;-78
2022/12/25 11:31:39;;;;;;;7.47;3.50;;;;;;;;;;4967602;28;20036;-78
2022/12/25 11:34:29;;;;;;;9.88;4.10;;;;;;;;;;4993093;28;20076;-78
2022/12/25 11:36:55;;;;;;;9.80;4.18;;;;;;;;;;5026070;28;20029;-77
2022/12/25 11:39:29;;;;;;;8.07;3.67;;;;;;;;;;5026155;28;20091;-78
2022/12/25 11:42:12;;;;;;;7.95;3.20;;;;;;;;;;5037269;28;20029;-78
2022/12/25 11:44:47;;;;;;;12.23;6.15;;;;;;;;;;5031527;28;20016;-78
2022/12/25 11:47:15;;;;;;;14.38;6.97;;;;;;;;;;5040566;28;20518;-78
2022/12/25 11:49:50;;;;;;;14.98;8.15;;;;;;;;;;5030235;28;20955;-78
2022/12/25 11:52:17;;;;;;;14.18;7.35;;;;;;;;;;5019565;28;20045;-77
2022/12/25 11:54:52;;;;;;;10.43;4.90;;;;;;;;;;5033664;28;21099;-77
2022/12/25 11:57:19;;;;;;;10.02;5.40;;;;;;;;;;5041443;28;20124;-77
2022/12/25 11:59:54;;;;;;;11.77;5.68;;;;;;;;;;5026724;28;20025;-78
2022/12/25 12:02:33;;;;;;;11.48;5.22;;;;;;;;;;5025866;28;20057;-77
2022/12/25 12:05:12;;;;;;;10.18;5.20;;;;;;;;;;5025912;28;20526;-78
2022/12/25 12:07:54;;;;;;;11.73;6.50;;;;;;;;;;5028535;28;20148;-77
2022/12/25 12:10:30;;;;;;;17.58;8.48;;;;;;;;;;5046272;28;20102;-78
2022/12/25 12:13:10;;;;;;;16.15;7.60;;;;;;;;;;5029720;28;20457;-78
2022/12/25 12:15:54;;;;;;;8.07;4.57;;;;;;;;;;5032213;28;20075;-78
2022/12/25 12:18:21;;;;;;;9.52;5.05;;;;;;;;;;5021288;28;20043;-78
2022/12/25 12:21:03;;;;;;;11.88;6.35;;;;;;;;;;5046418;28;20024;-77
2022/12/25 12:23:32;;;;;;;13.95;6.80;;;;;;;;;;5028056;28;20059;-78
2022/12/25 12:25:58;;;;;;;21.80;10.35;;;;;;;;;;5028743;28;20037;-77
2022/12/25 12:28:28;;;;;;;24.73;12.43;;;;;;;;;;5027609;28;20055;-77
2022/12/25 12:31:00;;;;;;;18.75;9.45;;;;;;;;;;5045868;28;20029;-77
2022/12/25 12:33:30;;;;;;;15.88;6.80;;;;;;;;;;5046247;28;20033;-78
2022/12/25 12:35:56;;;;;;;13.13;6.07;;;;;;;;;;5028696;28;20666;-78
2022/12/25 12:38:23;;;;;;;11.52;6.25;;;;;;;;;;5028515;28;20482;-77
2022/12/25 12:40:57;;;;;;;13.05;5.90;;;;;;;;;;5045860;28;20129;-77
2022/12/25 12:43:39;;;;;;;13.00;6.80;;;;;;;;;;5028021;28;20130;-78
2022/12/25 12:46:15;;;;;;;14.90;7.45;;;;;;;;;;5044000;28;20063;-78
2022/12/25 12:48:44;;;;;;;16.67;7.35;;;;;;;;;;5027017;28;20032;-78
2022/12/25 12:51:34;;;;;;;13.50;6.25;;;;;;;;;;5045798;28;20031;-78
2022/12/25 12:54:19;;;;;;;16.52;7.15;;;;;;;;;;5023334;28;20026;-78
2022/12/25 12:57:00;;;;;;;15.73;6.47;;;;;;;;;;5043520;28;20025;-77
2022/12/25 12:59:32;;;;;;;12.48;6.70;;;;;;;;;;5036416;28;20060;-77
2022/12/25 13:02:06;;;;;;;11.30;5.13;;;;;;;;;;5027292;28;20122;-78
2022/12/25 13:04:47;;;;;;;11.52;5.85;;;;;;;;;;5036198;28;20033;-78
2022/12/25 13:07:46;;;;;;;13.82;6.32;;;;;;;;;;5038822;28;20041;-78
2022/12/25 13:10:17;;;;;;;13.80;6.13;;;;;;;;;;5026640;28;20116;-77
2022/12/25 13:12:43;;;;;;;13.75;6.28;;;;;;;;;;5042403;28;20482;-78
2022/12/25 13:15:13;;;;;;;16.80;8.13;;;;;;;;;;5015589;28;20065;-77
2022/12/25 13:17:42;;;;;;;20.20;9.00;;;;;;;;;;5035645;28;20083;-78
2022/12/25 13:20:30;;;;;;;24.83;8.93;;;;;;;;;;5027918;28;20106;-79
2022/12/25 13:22:55;;;;;;;20.00;8.75;;;;;;;;;;5027885;28;20037;-78
2022/12/25 13:25:21;;;;;;;20.95;9.00;;;;;;;;;;5027642;28;20465;-77
2022/12/25 13:27:56;;;;;;;19.55;8.43;;;;;;;;;;5027180;28;20510;-78
2022/12/25 13:30:23;;;;;;;18.38;8.63;;;;;;;;;;5028711;28;20557;-78
2022/12/25 13:32:48;;;;;;;21.73;8.60;;;;;;;;;;5035749;28;20021;-78
2022/12/25 13:35:15;;;;;;;24.77;9.07;;;;;;;;;;5023164;28;20040;-77
2022/12/25 13:37:41;;;;;;;17.67;7.28;;;;;;;;;;5033556;28;20041;-78
2022/12/25 13:40:26;;;;;;;17.63;8.20;;;;;;;;;;5035427;28;20033;-77
2022/12/25 13:43:00;;;;;;;19.13;7.57;;;;;;;;;;5045928;28;20033;-78
2022/12/25 13:45:28;;;;;;;12.82;7.40;;;;;;;;;;5044766;28;20025;-78
2022/12/25 13:47:54;;;;;;;14.45;8.77;;;;;;;;;;5037655;28;20552;-78
2022/12/25 13:50:19;;;;;;;17.65;9.13;;;;;;;;;;5021427;28;20124;-78
2022/12/25 13:52:44;;;;;;;27.77;14.82;;;;;;;;;;5023796;28;20522;-78
2022/12/25 13:55:17;;;;;;;16.45;7.68;;;;;;;;;;5038987;28;20033;-77
2022/12/25 13:58:02;;;;;;;18.60;7.32;;;;;;;;;;5027105;28;20611;-78
2022/12/25 14:00:34;;;;;;;13.90;7.15;;;;;;;;;;5040799;28;20568;-78
2022/12/25 14:03:00;;;;;;;13.98;5.88;;;;;;;;;;5016032;28;20052;-78
2022/12/25 14:05:29;;;;;;;20.48;7.50;;;;;;;;;;5027459;28;20025;-77
2022/12/25 14:07:59;;;;;;;15.50;5.40;;;;;;;;;;5026825;28;20067;-77
2022/12/25 14:10:28;;;;;;;12.30;5.63;;;;;;;;;;5041901;28;20458;-77
2022/12/25 14:12:58;;;;;;;23.85;6.43;;;;;;;;;;5022858;28;20473;-77
2022/12/25 14:15:23;;;;;;;18.83;6.22;;;;;;;;;;5043353;28;20398;-78
2022/12/25 14:17:50;;;;;;;22.65;6.90;;;;;;;;;;5036857;28;20033;-78
2022/12/25 14:20:30;;;;;;;21.88;5.95;;;;;;;;;;5026773;28;20410;-78
2022/12/25 14:22:58;;;;;;;16.42;5.05;;;;;;;;;;5045418;28;20037;-78
2022/12/25 14:25:39;;;;;;;17.13;6.97;;;;;;;;;;5043125;28;20510;-78
2022/12/25 14:28:16;;;;;;;24.10;7.85;;;;;;;;;;5026258;28;20041;-78
2022/12/25 14:30:42;;;;;;;15.48;5.40;;;;;;;;;;5026864;28;20418;-78
2022/12/25 14:33:14;;;;;;;13.32;4.30;;;;;;;;;;5043308;28;20538;-79
2022/12/25 14:35:40;;;;;;;14.30;5.53;;;;;;;;;;5027275;28;20040;-78
2022/12/25 14:38:06;;;;;;;17.80;6.47;;;;;;;;;;5045546;28;20044;-79
2022/12/25 14:40:34;;;;;;;16.80;5.55;;;;;;;;;;5026799;28;20098;-79
2022/12/25 14:43:18;;;;;;;17.00;5.78;;;;;;;;;;5031944;28;20048;-79
2022/12/25 14:45:54;;;;;;;13.02;5.15;;;;;;;;;;5011626;28;20723;-79
2022/12/25 14:48:22;;;;;;;11.27;4.43;;;;;;;;;;5033804;28;20033;-79
2022/12/25 14:51:16;;;;;;;10.13;4.53;;;;;;;;;;5020653;28;20056;-78
2022/12/25 14:53:56;;;;;;;7.07;3.83;;;;;;;;;;5019981;28;20044;-78
2022/12/25 14:56:24;;;;;;;11.00;4.00;;;;;;;;;;5025222;28;20033;-78
2022/12/25 14:58:57;;;;;;;8.55;4.03;;;;;;;;;;5043764;28;20033;-78
2022/12/25 15:01:30;;;;;;;12.00;4.45;;;;;;;;;;5043640;28;20045;-79
2022/12/25 15:04:10;;;;;;;10.23;3.88;;;;;;;;;;5042445;28;20044;-78
2022/12/25 15:06:38;;;;;;;9.75;4.50;;;;;;;;;;5041181;28;20506;-78
2022/12/25 15:09:14;;;;;;;9.07;4.18;;;;;;;;;;5042355;28;20025;-78
2022/12/25 15:11:39;;;;;;;16.90;4.13;;;;;;;;;;5026546;28;20033;-78
2022/12/25 15:14:06;;;;;;;9.18;4.05;;;;;;;;;;5042422;28;20094;-79
2022/12/25 15:16:44;;;;;;;10.13;4.72;;;;;;;;;;5013294;28;20041;-78
2022/12/25 15:19:15;;;;;;;13.00;4.45;;;;;;;;;;5016600;28;20068;-78
2022/12/25 15:21:40;;;;;;;8.45;4.05;;;;;;;;;;5025800;28;20072;-78
2022/12/25 15:24:11;;;;;;;10.45;4.40;;;;;;;;;;5025646;28;20056;-78
2022/12/25 15:26:37;;;;;;;10.55;4.57;;;;;;;;;;5044953;28;20494;-78
2022/12/25 15:29:02;;;;;;;8.35;4.18;;;;;;;;;;5043163;28;20044;-78
2022/12/25 15:31:30;;;;;;;9.07;4.35;;;;;;;;;;5026756;28;20029;-78
2022/12/25 15:33:57;;;;;;;9.63;5.25;;;;;;;;;;5040528;28;20445;-79
2022/12/25 15:36:23;;;;;;;11.13;4.40;;;;;;;;;;5010968;28;20087;-79
2022/12/25 15:38:49;;;;;;;9.48;4.50;;;;;;;;;;5018575;28;20379;-78
2022/12/25 15:44:14;;;;;;;14.30;4.90;;;;;;;;;;5030645;28;20075;-78
2022/12/25 15:46:39;;;;;;;11.65;4.57;;;;;;;;;;5014117;28;20688;-78
2022/12/25 15:49:05;;;;;;;10.63;4.72;;;;;;;;;;5044272;28;20040;-78
2022/12/25 15:51:31;;;;;;;12.52;4.85;;;;;;;;;;5056700;28;20052;-78
2022/12/25 15:53:57;;;;;;;10.52;4.00;;;;;;;;;;5024425;28;20625;-78
2022/12/25 15:56:23;;;;;;;11.13;4.47;;;;;;;;;;5028296;28;20035;-77
2022/12/25 15:58:48;;;;;;;13.57;4.97;;;;;;;;;;5025774;28;20045;-78
2022/12/25 16:01:15;;;;;;;10.30;4.95;;;;;;;;;;5044052;28;20041;-78
2022/12/25 16:03:42;;;;;;;10.32;4.18;;;;;;;;;;5043824;28;20033;-78
2022/12/25 16:06:12;;;;;;;9.57;4.00;;;;;;;;;;5021585;28;20496;-78
2022/12/25 16:08:38;;;;;;;10.35;4.35;;;;;;;;;;4988624;28;20155;-78
2022/12/25 16:11:04;;;;;;;10.15;4.63;;;;;;;;;;5023631;28;20131;-78
2022/12/25 16:13:30;;;;;;;13.65;4.50;;;;;;;;;;5018098;28;20044;-78
2022/12/25 16:15:55;;;;;;;10.70;4.30;;;;;;;;;;5022461;28;20099;-78
2022/12/25 16:18:22;;;;;;;12.00;4.85;;;;;;;;;;5015533;28;20106;-78
2022/12/25 16:20:52;;;;;;;13.45;5.57;;;;;;;;;;5008519;28;20069;-78
2022/12/25 16:23:18;;;;;;;11.27;4.90;;;;;;;;;;5021575;28;20037;-77
2022/12/25 16:25:43;;;;;;;11.52;4.55;;;;;;;;;;5025802;28;20041;-77
2022/12/25 16:28:09;;;;;;;9.77;3.97;;;;;;;;;;5042952;28;20025;-77
2022/12/25 16:30:35;;;;;;;10.00;4.40;;;;;;;;;;5038383;28;20502;-78
2022/12/25 16:33:00;;;;;;;13.25;4.78;;;;;;;;;;5020595;28;20048;-78
2022/12/25 16:35:26;;;;;;;12.10;5.07;;;;;;;;;;5025608;28;20055;-78
2022/12/25 16:37:51;;;;;;;12.40;4.68;;;;;;;;;;5043609;28;20028;-78
2022/12/25 16:40:16;;;;;;;12.82;4.95;;;;;;;;;;5019430;28;20040;-78
2022/12/25 16:42:42;;;;;;;11.63;4.45;;;;;;;;;;5017136;28;20047;-78